logo
Search for airport 
image banner adimage banner adimage banner ad
image banner ad

SETO - Andes Aeroclub

Located in Quito, Ecuador

ICAO - , IATA -

Data provided by Airmate  

General information

Coordinates: N0°3'36" W78°13'22"
Elevation is 9760 feet MSL.
Magnetic variation is -4° East
View others Airports in Pichincha

Operational data

Special qualification required
Current time UTC:
Current local time:
Weather at : SEQM - Quito / Mariscal Sucre Intl ( 25 km )
METAR: SEQM 191500Z 22003KT 180V260 9999 -RA FEW005 SCT020 OVC080 15/13 Q1031 NOSIG RMK A3045
TAF: SEQM 191020 1912/2012 VRB03KT 9999 SCT030 BKN100 BECMG 1917/1919 35012KT TEMPO 1919/1921 TSRA FEW023CB SCT030 SCT100 BECMG 2000/2002 03005KT FEW010 BKN023 BKN100 TEMPO 2005/2008 6000 BCFG BKN005 TX24/1919Z TN11/2011Z
View NOTAMs / SUP AIP / TFR affecting this airport [VIEW]
Communications frequencies: [VIEW]

Runways:

RWY identifierQFULength (ft)Width (ft)SurfaceLDA (ft)
24234°113930ASPH
0654°113930ASPH
18160°132919ASPH
36340°132919ASPH

Airport contact information

Address: Quito Ecuador

Satellite view of SETO